Relevés horaires Fribourg / Posieux (Suisse)


Relevés horaires à Fribourg / Posieux - Samedi 16 Juin 2018
Heure UTC1 Température [°C] Vent [km/h] Hum. [%] Pres.4 [hPa] Visi. [Km] Nébu. [octa] Préc.5 [mm] Cond.
2m. Res. Ros. Dir.2 Vit. Moy. Raf.3
23:00 15.9 15.9 13.8 OSO 1.9 -- -- 87 850 -- -- -- --
22:00 16.5 16.5 13.6 N 0.0 -- -- 83 850 -- -- -- --
21:00 17.0 17.0 13.5 E 1.9 -- 11.1 80 850 -- -- -- --
20:00 19.7 19.7 12.5 NO 3.7 -- -- 63 850 -- -- -- --
19:00 20.4 20.4 12.4 NNO 5.6 -- -- 60 850 -- -- -- --
18:00 21.3 21.3 12.3 NNO 7.4 -- 20.4 56 850 -- -- 0/12h
--
17:00 21.9 21.9 11.2 NE 5.6 -- -- 51 850 -- -- -- --
16:00 22.4 22.4 10.8 N 9.3 -- -- 48 850 -- -- -- --
15:00 22.8 22.8 9.7 E 5.6 -- 20.4 43 850 -- -- -- --
14:00 22.7 22.7 9.2 N 9.3 -- -- 42 850 -- -- -- --
13:00 22.3 22.3 8.2 N 9.3 -- -- 40 850 -- -- -- --
12:00 22.0 22.0 8.5 N 11.1 -- 24.1 42 850 -- -- 0/6h
--
11:00 21.4 21.4 11.0 N 11.1 -- -- 52 850 -- -- -- --
10:00 20.5 20.5 11.7 NNE 9.3 -- -- 57 850 -- -- -- --
09:00 19.1 19.1 11.2 NNE 11.1 -- 18.5 60 850 -- -- -- --
08:00 17.8 17.8 11.7 NE 5.6 -- -- 67 850 -- -- -- --
07:00 15.9 15.9 11.2 O 3.7 -- -- 74 850 -- -- -- --
06:00 13.8 13.8 11.3 O 5.6 -- 9.3 85 850 -- -- 0/12h
0/24h
--
05:00 11.5 11.5 10.4 O 1.9 -- -- 93 850 -- -- -- --
04:00 10.3 10.3 9.7 SSO 1.9 -- -- 96 850 -- -- -- --
03:00 10.0 10.0 9.2 OSO 3.7 -- 5.6 95 850 -- -- -- --
02:00 10.6 10.6 9.5 S 0.0 -- -- 93 850 -- -- -- --
01:00 11.5 11.5 10.2 S 0.0 -- -- 92 850 -- -- -- --
00:00 12.1 12.1 10.4 SSO 3.7 -- 20.4 89 850 -- -- 0/6h
--

1 Coordinated Universal Time. Actuellement il est 04:00 locale et 02:00 UTC.

2 Le vent souffle depuis la direction indiquée vers la direction oposée.

3 Les rafales max. sont disponible 40 min après l'heure du relevé.

4 Pour les stations d'altitude (plus de 600m) le géopotentiel du niveau le plus proche de la pression obligatoire est indiqué.

5 Les stations disposant d'un diffuseur peuvent indiquer "trace". Cela signifie que des précipitations ont touchés le sol mais que la quantité est inférieure à 0.1 mm.

Récapitulatif de la journée
Température [°C] Vent [km/h] Ensoleillement4 [h] Precipitations totale5 [mm] Pression [Hpa]
Min1 Max.2 Moy.3 Max. Min Max.
9.8 23.2 0 24.1 12 h 36 min 0 850.0 850.0

1 Température minimale relevée entre 18:00 UTC la veille et 18:00 UTC le jour donné.

2 Température maximale relevée entre 06:00 UTC le jour donné et 06:00 UTC le lendemain.

3 Vent moyen de la journée basé sur les relevés horaires.

4 Ensoleillement en heures relevé entre 06:00 UTC la veille et 06:00 UTC le jour donné.

5 Précipitations totales tombées entre 06:00 UTC la jour donné et 06:00 UTC le lendemain.

Graphiques horaires